Friday, January 19, 2018, 7:27 AM GMT
Back to Local

CWSD, Summerside Automatic Weather Reporting System

Location: , , Canada Lat: 46.433
Local Time: 7:27 AM GMT ( 7:27 GMT) Lon: -63.85
Time Zone: GMT Elev: 78 ft

Show me the last for .
Show Decoded

2018-01-19 06:00 METAR CWSD 190600Z AUTO 28002KT M11/M12 RMK AO1 SOG 16 5004 SLP081 T11131121 =
2018-01-19 05:00 METAR CWSD 190500Z AUTO 23003KT M11/M11 RMK AO1 SOG 16 8010 SLP079 T11061112 =
2018-01-19 04:00 METAR CWSD 190400Z AUTO 24004KT M13/M14 RMK AO1 SOG 16 1001 SLP087 T11281142 =
2018-01-19 03:00 METAR CWSD 190300Z AUTO 27004KT M11/M12 RMK AO1 SOG 16 0000 SLP085 T11091118 =
2018-01-19 02:00 METAR CWSD 190200Z AUTO 26007KT M09/M10 RMK AO1 SOG 17 1008 SLP089 T10911096 =
2018-01-19 01:00 METAR CWSD 190100Z AUTO 29003KT M11/M13 RMK AO1 SOG 17 3004 SLP086 T11051127 =
2018-01-19 00:00 METAR CWSD 190000Z AUTO 23005KT M09/M09 RMK AO1 SOG 17 2007 SLP085 T10871092
                 50002 =
2018-01-18 23:00 METAR CWSD 182300Z AUTO 27002KT M08/M09 RMK AO1 2PAST HR SOG 17 M SLP081 P0001
                 T10771087 =
2018-01-18 21:00 METAR CWSD 182100Z AUTO 28008KT M05/M07 RMK AO1 SOG 17 3006 SLP078 T10471069 =
2018-01-18 20:00 METAR CWSD 182000Z AUTO 29012KT M04/M06 RMK AO1 SOG 18 1001 PK WND 27020/1907
                 SLP073 T10431064 =
2018-01-18 19:00 METAR CWSD 181900Z AUTO 26012G17KT M03/M06 RMK AO1 SOG 18 5010 PK WND 26017/1849
                 SLP073 T10331056 =
2018-01-18 18:00 METAR CWSD 181800Z AUTO 27011G18KT M03/M05 RMK AO1 SOG 19 6028 PK WND 27018/1734
                 SLP072 T10341047 =
2018-01-18 17:00 METAR CWSD 181700Z AUTO 25008KT M03/M04 RMK AO1 SOG 16 8029 SLP072 T10331043 =
2018-01-18 16:00 METAR CWSD 181600Z AUTO 24008KT M04/M04 RMK AO1 SOG 16 8015 SLP083 T10391035 =
2018-01-18 15:00 METAR CWSD 181500Z AUTO 25006KT M03/M04 RMK AO1 SOG 17 0005 SLP100 T10341037 =
2018-01-18 14:00 METAR CWSD 181400Z AUTO 26006KT M04/M04 RMK AO1 SOG 17 3005 SLP101 T10401042 =
2018-01-18 13:00 METAR CWSD 181300Z AUTO 25005KT M04/M04 RMK AO1 SOG 17 5003 SLP098 T10391042 =
2018-01-18 12:00 METAR CWSD 181200Z AUTO 20002KT M04/M05 RMK AO1 SOG 17 6012 SLP095 T10441046
                 50004 =
2018-01-18 11:00 METAR CWSD 181100Z AUTO 33003KT M04/M04 RMK AO1 SOG 17 7016 SLP096 T10411044
                 50004 =
2018-01-18 10:00 METAR CWSD 181000Z AUTO 36004KT M03/M04 RMK AO1 SOG 18 6019 SLP101 T10331035
                 50004 =
2018-01-18 09:00 METAR CWSD 180900Z AUTO 36005KT M03/M03 RMK AO1 2PAST HR SOG 17 6021 SLP107
                 P0001 T10321034 50004 =
2018-01-18 08:00 METAR CWSD 180800Z AUTO 35006KT M03/M03 RMK AO1 SOG 18 6025 SLP112 T10301032
                 50002 =

Support USWX by starting your Amazon purchase here.